Time;durP1;ratioP1;P1;durP2;ratioP2;P2;SDS_P1;SDS_P2;PMS_P1;PMS_P2;Temp;Humidity;BMP_temperature;BMP_pressure;BME280_temperature;BME280_humidity;BME280_pressure;Samples;Min_cycle;Max_cycle;Signal;HPM_P1;HPM_P2
2023/07/06 00:00:08;;;;;;;9.17;7.80;;;12.70;99.90;;;;;;4936105;28;20742;-77
2023/07/06 00:02:36;;;;;;;12.40;8.50;;;12.60;99.90;;;;;;4935659;29;20253;-81
2023/07/06 00:05:04;;;;;;;12.67;8.60;;;12.60;99.90;;;;;;4936333;29;20271;-77
2023/07/06 00:07:34;;;;;;;16.13;8.20;;;12.60;99.90;;;;;;4935823;29;20675;-82
2023/07/06 00:10:04;;;;;;;11.13;7.87;;;12.50;99.90;;;;;;4935824;29;20287;-81
2023/07/06 00:12:34;;;;;;;11.33;8.30;;;12.50;99.90;;;;;;4935776;29;20232;-80
2023/07/06 00:15:03;;;;;;;13.83;8.93;;;12.40;99.90;;;;;;4968863;28;20211;-79
2023/07/06 00:17:32;;;;;;;14.23;9.57;;;12.40;99.90;;;;;;4974761;28;20700;-80
2023/07/06 00:20:00;;;;;;;17.53;9.23;;;12.40;99.90;;;;;;4939933;28;20263;-80
2023/07/06 00:22:28;;;;;;;15.93;10.17;;;12.30;99.90;;;;;;4935362;29;20215;-81
2023/07/06 00:24:57;;;;;;;13.97;9.40;;;12.30;99.90;;;;;;4935613;29;20219;-80
2023/07/06 00:27:28;;;;;;;13.57;8.50;;;12.30;99.90;;;;;;4934936;29;20231;-81
2023/07/06 00:30:15;;;;;;;12.73;7.87;;;12.20;99.90;;;;;;4964196;28;20211;-80
2023/07/06 00:32:44;;;;;;;13.37;9.13;;;12.20;99.90;;;;;;4973409;28;20210;-79
2023/07/06 00:35:12;;;;;;;18.50;11.60;;;12.20;99.90;;;;;;4973703;28;20289;-80
2023/07/06 00:37:41;;;;;;;20.60;10.57;;;12.20;99.90;;;;;;4944141;28;20216;-76
2023/07/06 00:40:13;;;;;;;17.77;9.83;;;12.30;99.90;;;;;;4935385;29;20694;-77
2023/07/06 00:42:42;;;;;;;13.60;8.97;;;12.20;99.90;;;;;;4935548;29;20193;-76
2023/07/06 00:45:15;;;;;;;16.83;9.83;;;12.20;99.90;;;;;;4934754;29;20220;-77
2023/07/06 00:47:46;;;;;;;16.43;10.10;;;12.30;99.90;;;;;;4935161;29;20212;-76
2023/07/06 00:50:18;;;;;;;15.47;8.97;;;12.20;99.90;;;;;;4935777;29;20215;-74
2023/07/06 00:52:51;;;;;;;15.80;8.30;;;12.20;99.90;;;;;;4935081;29;20275;-77
2023/07/06 00:55:25;;;;;;;14.90;9.57;;;12.20;99.90;;;;;;4935659;29;20248;-81
2023/07/06 00:57:58;;;;;;;15.00;8.40;;;12.20;99.90;;;;;;4934938;29;20250;-79
2023/07/06 01:00:26;;;;;;;11.53;8.30;;;12.20;99.90;;;;;;4935268;29;20396;-77
2023/07/06 01:03:01;;;;;;;16.20;8.80;;;12.20;99.90;;;;;;4934705;29;20258;-78
2023/07/06 01:05:30;;;;;;;13.53;8.83;;;12.30;99.90;;;;;;4935169;29;20215;-78
2023/07/06 01:08:05;;;;;;;12.30;8.90;;;12.30;99.90;;;;;;4935302;29;20642;-77
2023/07/06 01:10:34;;;;;;;12.60;8.50;;;12.30;99.90;;;;;;4935133;29;20658;-77
2023/07/06 01:13:04;;;;;;;11.17;8.27;;;12.30;99.90;;;;;;4958224;28;20258;-77
2023/07/06 01:15:37;;;;;;;13.87;8.40;;;12.30;99.90;;;;;;4948740;28;20223;-78
2023/07/06 01:18:13;;;;;;;16.33;9.80;;;12.30;99.90;;;;;;4939373;29;20262;-77
2023/07/06 01:20:47;;;;;;;13.40;8.33;;;12.30;99.90;;;;;;4939948;29;20200;-80
2023/07/06 01:23:37;;;;;;;12.43;7.93;;;12.30;99.90;;;;;;4938396;29;20264;-78
2023/07/06 01:26:35;;;;;;;13.30;8.63;;;12.30;99.90;;;;;;4940107;29;20283;-78
2023/07/06 01:29:40;;;;;;;12.57;7.97;;;12.30;99.90;;;;;;4934793;29;20254;-77
2023/07/06 01:32:15;;;;;;;14.73;8.17;;;12.30;99.90;;;;;;4939036;29;20232;-77
2023/07/06 01:34:53;;;;;;;13.23;8.87;;;12.20;99.90;;;;;;4939234;29;20200;-78
2023/07/06 01:37:26;;;;;;;12.73;8.77;;;12.20;99.90;;;;;;4938867;29;20607;-76
2023/07/06 01:39:54;;;;;;;12.67;8.13;;;12.20;99.90;;;;;;4938938;29;20201;-76
2023/07/06 01:42:32;;;;;;;14.40;10.10;;;12.20;99.90;;;;;;4938555;28;20244;-78
2023/07/06 01:45:05;;;;;;;13.23;8.77;;;12.20;99.90;;;;;;4938839;29;20242;-77
2023/07/06 01:47:37;;;;;;;12.77;7.93;;;12.20;99.90;;;;;;4938532;29;20312;-78
2023/07/06 01:50:09;;;;;;;12.97;9.60;;;12.10;99.90;;;;;;4938379;29;20216;-76
2023/07/06 01:52:52;;;;;;;11.63;7.87;;;12.20;99.90;;;;;;4938235;29;20231;-77
2023/07/06 01:55:27;;;;;;;11.67;8.27;;;12.10;99.90;;;;;;4938412;29;20211;-78
2023/07/06 01:58:05;;;;;;;14.37;8.87;;;12.10;99.90;;;;;;4938484;29;20219;-79
2023/07/06 02:00:36;;;;;;;13.47;8.27;;;12.10;99.90;;;;;;4938642;29;20255;-78
2023/07/06 02:03:08;;;;;;;10.03;8.40;;;12.10;99.90;;;;;;4938320;29;20354;-78
2023/07/06 02:05:38;;;;;;;11.77;8.23;;;12.10;99.90;;;;;;4938472;29;20201;-76
2023/07/06 02:08:08;;;;;;;14.03;9.17;;;12.10;99.90;;;;;;4937495;29;20236;-78
2023/07/06 02:10:36;;;;;;;13.07;8.63;;;12.00;99.90;;;;;;4944647;28;20246;-78
2023/07/06 02:13:04;;;;;;;12.70;8.77;;;11.90;99.90;;;;;;4975837;28;20231;-78
2023/07/06 02:15:32;;;;;;;16.40;8.87;;;11.90;99.90;;;;;;4970587;28;22318;-77
2023/07/06 02:18:01;;;;;;;14.87;8.80;;;11.90;99.90;;;;;;4938247;29;20291;-79
2023/07/06 02:20:31;;;;;;;13.30;7.83;;;11.80;99.90;;;;;;4938386;29;20266;-78
2023/07/06 02:23:00;;;;;;;11.13;7.60;;;11.80;99.90;;;;;;4937180;29;20208;-80
2023/07/06 02:25:28;;;;;;;15.23;8.60;;;11.70;99.90;;;;;;4940558;28;20606;-78
2023/07/06 02:27:56;;;;;;;12.43;7.73;;;11.70;99.90;;;;;;4956688;29;20577;-76
2023/07/06 02:30:24;;;;;;;11.57;7.20;;;11.60;99.90;;;;;;4956768;29;20277;-76
2023/07/06 02:32:52;;;;;;;12.33;8.17;;;11.60;99.90;;;;;;4956300;29;20624;-82
2023/07/06 02:35:21;;;;;;;11.60;7.57;;;11.60;99.90;;;;;;4957630;28;20235;-78
2023/07/06 02:37:50;;;;;;;10.67;7.77;;;11.40;99.90;;;;;;4956613;29;20566;-74
2023/07/06 02:40:18;;;;;;;12.97;8.20;;;11.50;99.90;;;;;;4956760;29;20211;-77
2023/07/06 02:42:48;;;;;;;9.37;7.80;;;11.40;99.90;;;;;;4948348;29;20652;-77
2023/07/06 02:45:17;;;;;;;9.30;7.43;;;11.30;99.90;;;;;;4937889;29;20223;-78
2023/07/06 02:47:46;;;;;;;12.93;7.97;;;11.30;99.90;;;;;;4937660;29;20260;-77
2023/07/06 02:50:14;;;;;;;10.47;7.20;;;11.20;99.90;;;;;;4937491;29;20212;-78
2023/07/06 02:52:44;;;;;;;11.00;7.60;;;11.20;99.90;;;;;;4936634;29;20662;-76
2023/07/06 02:55:14;;;;;;;11.03;8.07;;;11.20;99.90;;;;;;4937444;29;20220;-77
2023/07/06 02:57:42;;;;;;;13.67;8.53;;;11.20;99.90;;;;;;4937366;29;20258;-76
2023/07/06 03:00:14;;;;;;;13.17;8.00;;;11.20;99.90;;;;;;4937245;29;20276;-76
2023/07/06 03:02:42;;;;;;;9.30;7.90;;;11.20;99.90;;;;;;4937180;29;20205;-76
2023/07/06 03:05:11;;;;;;;12.77;8.50;;;11.10;99.90;;;;;;4937238;29;20243;-79
2023/07/06 03:07:40;;;;;;;14.50;8.50;;;11.10;99.90;;;;;;4937283;29;20722;-79
2023/07/06 03:10:09;;;;;;;13.97;8.47;;;11.10;99.90;;;;;;4958819;28;20665;-78
2023/07/06 03:12:39;;;;;;;14.10;8.53;;;11.00;99.90;;;;;;4975027;28;20221;-78
2023/07/06 03:15:11;;;;;;;17.37;9.23;;;11.10;99.90;;;;;;4975467;28;20261;-79
2023/07/06 03:17:40;;;;;;;15.63;8.83;;;11.10;99.90;;;;;;4945045;28;20686;-77
2023/07/06 03:20:15;;;;;;;14.10;8.03;;;11.00;99.90;;;;;;4937937;29;20271;-77
2023/07/06 03:22:45;;;;;;;13.57;8.70;;;11.00;99.90;;;;;;4940249;29;20211;-77
2023/07/06 03:25:14;;;;;;;12.97;8.47;;;11.00;99.90;;;;;;4943928;29;20221;-75
2023/07/06 03:27:46;;;;;;;12.80;8.03;;;11.00;99.90;;;;;;4939462;29;20240;-76
2023/07/06 03:30:17;;;;;;;14.57;8.97;;;11.00;99.90;;;;;;4938147;29;20208;-77
2023/07/06 03:32:46;;;;;;;11.53;7.77;;;10.90;99.90;;;;;;4936141;29;20244;-81
2023/07/06 03:35:15;;;;;;;11.73;8.50;;;10.90;99.90;;;;;;4935455;29;20224;-80
2023/07/06 03:37:45;;;;;;;11.97;8.30;;;10.90;99.90;;;;;;4935633;29;20272;-80
2023/07/06 03:40:14;;;;;;;11.20;8.13;;;10.90;99.90;;;;;;4936213;29;20244;-80
2023/07/06 03:42:46;;;;;;;14.17;8.73;;;10.90;99.90;;;;;;4935947;29;20619;-79
2023/07/06 03:45:16;;;;;;;14.00;8.67;;;10.90;99.90;;;;;;4935836;29;20211;-81
2023/07/06 03:47:46;;;;;;;14.20;9.23;;;11.00;99.90;;;;;;4936071;29;20645;-80
2023/07/06 03:50:16;;;;;;;17.80;9.17;;;11.00;99.90;;;;;;4935678;29;20219;-80
2023/07/06 03:52:46;;;;;;;13.30;8.07;;;11.00;99.90;;;;;;4935308;29;20212;-81
2023/07/06 03:55:17;;;;;;;11.70;8.43;;;11.00;99.90;;;;;;4935546;29;20239;-79
2023/07/06 03:57:47;;;;;;;14.77;8.60;;;11.00;99.90;;;;;;4935405;29;20219;-80
2023/07/06 04:00:31;;;;;;;17.07;8.13;;;11.10;99.90;;;;;;4935668;29;20220;-81
2023/07/06 04:03:03;;;;;;;9.40;7.40;;;11.10;99.90;;;;;;4935770;29;20204;-80
2023/07/06 04:05:34;;;;;;;10.13;8.10;;;11.10;99.90;;;;;;4935720;29;20231;-82
2023/07/06 04:08:06;;;;;;;9.87;7.43;;;11.20;99.90;;;;;;4935425;28;20218;-80
2023/07/06 04:10:37;;;;;;;16.83;7.80;;;11.20;99.90;;;;;;4935657;29;20267;-80
2023/07/06 04:13:06;;;;;;;11.67;8.33;;;11.20;99.90;;;;;;4935207;29;20215;-81
2023/07/06 04:15:35;;;;;;;11.30;7.70;;;11.20;99.90;;;;;;4935115;29;20236;-80
2023/07/06 04:18:05;;;;;;;14.00;7.67;;;11.20;99.90;;;;;;4935269;29;20219;-79
2023/07/06 04:20:35;;;;;;;11.07;7.70;;;11.20;99.90;;;;;;4935232;29;20221;-80
2023/07/06 04:23:04;;;;;;;9.57;7.90;;;11.20;99.90;;;;;;4934729;29;20733;-80
2023/07/06 04:25:34;;;;;;;15.20;8.60;;;11.20;99.90;;;;;;4934865;29;20641;-80
2023/07/06 04:28:05;;;;;;;9.23;7.73;;;11.20;99.90;;;;;;4935205;29;20279;-81
2023/07/06 04:30:35;;;;;;;9.97;7.03;;;11.20;99.90;;;;;;4935155;29;20650;-80
2023/07/06 04:33:06;;;;;;;15.10;7.67;;;11.30;99.90;;;;;;4934686;29;20287;-80
2023/07/06 04:35:35;;;;;;;8.73;7.00;;;11.30;99.90;;;;;;4935012;29;20372;-80
2023/07/06 04:38:07;;;;;;;11.60;7.90;;;11.40;99.90;;;;;;4935285;29;20228;-80
2023/07/06 04:40:35;;;;;;;10.30;7.30;;;11.40;99.90;;;;;;4935351;29;20264;-79
2023/07/06 04:43:04;;;;;;;10.27;7.30;;;11.50;99.90;;;;;;4936533;29;20219;-80
2023/07/06 04:45:33;;;;;;;9.73;7.00;;;11.50;99.90;;;;;;4936383;29;20242;-79
2023/07/06 04:48:03;;;;;;;8.17;6.77;;;11.60;99.90;;;;;;4938007;29;20216;-78
2023/07/06 04:50:31;;;;;;;10.57;6.90;;;11.60;99.90;;;;;;4936060;29;20216;-81
2023/07/06 04:53:02;;;;;;;9.03;6.47;;;11.60;99.90;;;;;;4935761;29;20216;-81
2023/07/06 04:55:32;;;;;;;8.90;6.57;;;11.80;99.90;;;;;;4937232;29;20263;-81
2023/07/06 04:58:01;;;;;;;8.83;6.70;;;11.80;99.90;;;;;;4937910;29;20584;-80
2023/07/06 05:00:32;;;;;;;8.80;6.90;;;11.90;99.90;;;;;;4939127;29;20276;-79
2023/07/06 05:03:06;;;;;;;8.93;7.00;;;11.90;99.90;;;;;;4939318;29;20226;-78
2023/07/06 05:05:38;;;;;;;9.23;6.90;;;12.00;99.90;;;;;;4938798;29;20235;-77
2023/07/06 05:08:07;;;;;;;8.63;6.53;;;12.10;99.90;;;;;;4974050;28;20210;-78
2023/07/06 05:10:35;;;;;;;7.97;6.13;;;12.20;99.90;;;;;;4965529;28;20212;-82
2023/07/06 05:13:04;;;;;;;9.20;6.37;;;12.20;99.90;;;;;;4936261;29;20220;-81
2023/07/06 05:15:32;;;;;;;8.47;6.37;;;12.30;99.90;;;;;;4936140;29;20306;-81
2023/07/06 05:18:03;;;;;;;7.63;5.70;;;12.40;99.90;;;;;;4937750;29;20220;-82
2023/07/06 05:20:32;;;;;;;8.30;5.67;;;12.40;99.90;;;;;;4937143;29;20208;-80
2023/07/06 05:23:00;;;;;;;7.40;6.30;;;12.50;99.90;;;;;;4941447;29;20271;-78
2023/07/06 05:25:28;;;;;;;9.87;5.63;;;12.60;99.90;;;;;;4936568;29;20247;-82
2023/07/06 05:27:56;;;;;;;8.37;5.10;;;12.70;99.90;;;;;;4935508;29;20618;-81
2023/07/06 05:30:24;;;;;;;7.77;5.77;;;12.70;99.90;;;;;;4935073;29;20584;-79
2023/07/06 05:32:52;;;;;;;8.20;5.80;;;12.80;99.90;;;;;;4935502;29;20630;-78
2023/07/06 05:35:23;;;;;;;6.17;5.03;;;13.00;99.90;;;;;;4935748;29;20263;-76
2023/07/06 05:37:51;;;;;;;7.60;5.80;;;13.10;99.90;;;;;;4934902;29;20271;-78
2023/07/06 05:40:20;;;;;;;7.03;5.40;;;13.20;99.90;;;;;;4934734;29;20556;-81
2023/07/06 05:42:48;;;;;;;5.97;4.73;;;13.30;99.90;;;;;;4934549;29;20209;-76
2023/07/06 05:45:16;;;;;;;6.43;4.73;;;13.40;99.90;;;;;;4935183;29;20263;-75
2023/07/06 05:47:45;;;;;;;7.10;4.30;;;13.60;99.90;;;;;;4933661;29;20256;-79
2023/07/06 05:50:14;;;;;;;6.93;4.10;;;13.70;99.90;;;;;;4934460;29;20303;-80
2023/07/06 05:52:43;;;;;;;6.23;4.23;;;13.90;99.90;;;;;;4934281;29;20225;-76
2023/07/06 05:55:11;;;;;;;6.73;3.97;;;14.20;99.90;;;;;;4934514;29;20322;-78
2023/07/06 05:57:40;;;;;;;5.17;3.90;;;14.70;99.90;;;;;;4934849;29;20496;-75
2023/07/06 06:00:10;;;;;;;5.63;3.80;;;15.50;99.90;;;;;;4934122;29;20644;-78
2023/07/06 06:02:42;;;;;;;7.37;3.90;;;16.60;99.90;;;;;;4936752;29;20557;-79
2023/07/06 06:05:11;;;;;;;6.57;3.60;;;17.90;99.90;;;;;;4947427;28;20238;-77
2023/07/06 06:07:39;;;;;;;6.13;3.57;;;19.20;99.90;;;;;;4976180;28;20266;-78
2023/07/06 06:10:09;;;;;;;4.43;3.77;;;20.10;99.90;;;;;;4975817;28;20234;-77
2023/07/06 06:12:37;;;;;;;6.53;3.47;;;20.80;99.90;;;;;;4975666;28;20243;-77
2023/07/06 06:15:08;;;;;;;6.37;3.30;;;21.30;99.90;;;;;;4958775;28;20322;-77
2023/07/06 06:17:37;;;;;;;5.73;3.40;;;21.90;99.90;;;;;;4937172;29;20216;-77
2023/07/06 06:20:08;;;;;;;6.13;3.47;;;22.80;99.90;;;;;;4937452;29;20222;-78
2023/07/06 06:22:37;;;;;;;3.73;2.97;;;22.90;99.90;;;;;;4936764;29;20694;-77
2023/07/06 06:25:06;;;;;;;7.17;3.70;;;23.30;99.90;;;;;;4937386;29;20259;-78
2023/07/06 06:27:35;;;;;;;4.83;3.40;;;23.90;99.30;;;;;;4937447;29;20212;-78
2023/07/06 06:30:05;;;;;;;5.60;3.58;;;24.40;96.80;;;;;;4937310;29;20667;-78
2023/07/06 06:32:34;;;;;;;5.35;3.40;;;24.50;95.70;;;;;;4936934;29;20309;-77
2023/07/06 06:35:03;;;;;;;4.38;3.13;;;24.20;94.90;;;;;;4937108;29;20232;-80
2023/07/06 06:37:32;;;;;;;5.22;3.25;;;23.80;94.90;;;;;;4937173;29;20243;-77
2023/07/06 06:40:00;;;;;;;3.50;3.20;;;24.30;93.80;;;;;;4937171;29;20216;-76
2023/07/06 06:42:29;;;;;;;4.07;3.30;;;24.50;95.20;;;;;;4936546;29;20295;-76
2023/07/06 06:44:59;;;;;;;4.90;3.20;;;24.40;92.70;;;;;;4937252;29;20212;-79
2023/07/06 06:47:27;;;;;;;4.25;3.50;;;24.30;93.10;;;;;;4936956;29;20216;-77
2023/07/06 06:49:55;;;;;;;5.20;3.10;;;24.40;93.10;;;;;;4937030;29;20248;-77
2023/07/06 06:52:23;;;;;;;5.47;2.95;;;24.90;92.70;;;;;;4936156;28;20222;-76
2023/07/06 06:54:52;;;;;;;3.08;2.53;;;25.10;93.90;;;;;;4936644;29;20657;-76
2023/07/06 06:57:21;;;;;;;4.82;3.15;;;25.30;91.80;;;;;;4936857;29;20259;-76
2023/07/06 06:59:49;;;;;;;3.42;3.00;;;25.10;95.00;;;;;;4936856;29;20666;-77
2023/07/06 07:02:19;;;;;;;6.05;3.17;;;24.60;94.60;;;;;;4936331;29;20251;-80
2023/07/06 07:04:48;;;;;;;3.28;2.97;;;24.40;96.20;;;;;;4962641;28;20207;-79
2023/07/06 07:07:16;;;;;;;5.18;3.05;;;23.70;96.40;;;;;;4975140;28;20218;-79
2023/07/06 07:09:44;;;;;;;3.80;3.08;;;23.50;96.40;;;;;;4946582;28;20240;-76
2023/07/06 07:12:13;;;;;;;5.85;3.10;;;23.40;99.50;;;;;;4935516;29;20578;-77
2023/07/06 07:14:41;;;;;;;4.75;3.00;;;23.80;98.20;;;;;;4936074;29;20209;-78
2023/07/06 07:17:10;;;;;;;5.70;2.90;;;23.70;97.30;;;;;;4936579;29;20240;-78
2023/07/06 07:19:40;;;;;;;4.53;3.00;;;23.70;97.90;;;;;;4936511;29;20236;-79
2023/07/06 07:22:08;;;;;;;4.28;2.72;;;23.50;98.00;;;;;;4935971;29;20669;-78
2023/07/06 07:24:36;;;;;;;4.73;2.70;;;23.60;94.00;;;;;;4936366;29;20552;-78
2023/07/06 07:27:05;;;;;;;5.57;2.97;;;23.80;97.50;;;;;;4936248;29;20304;-78
2023/07/06 07:29:33;;;;;;;4.07;2.80;;;23.70;99.20;;;;;;4936096;29;20672;-76
2023/07/06 07:32:03;;;;;;;4.17;2.73;;;23.40;91.80;;;;;;4935364;29;20216;-77
2023/07/06 07:34:32;;;;;;;4.00;2.57;;;23.20;98.50;;;;;;4935943;29;20562;-77
2023/07/06 07:37:02;;;;;;;3.17;2.80;;;23.50;99.90;;;;;;4935908;29;20232;-77
2023/07/06 07:39:31;;;;;;;5.73;2.57;;;24.00;93.50;;;;;;4936202;29;20482;-79
2023/07/06 07:42:00;;;;;;;3.80;2.10;;;23.90;86.90;;;;;;4935431;29;20216;-75
2023/07/06 07:44:28;;;;;;;5.20;2.70;;;24.10;90.30;;;;;;4936125;29;20212;-76
2023/07/06 07:46:58;;;;;;;2.38;2.10;;;25.10;91.70;;;;;;4935678;29;20236;-78
2023/07/06 07:49:26;;;;;;;2.75;2.13;;;25.90;91.00;;;;;;4936046;29;20216;-78
2023/07/06 07:51:54;;;;;;;2.88;2.13;;;26.10;70.00;;;;;;4935080;29;20215;-78
2023/07/06 07:54:24;;;;;;;3.70;2.33;;;25.40;68.00;;;;;;4935530;29;20311;-74
2023/07/06 07:56:54;;;;;;;3.17;2.25;;;26.10;66.20;;;;;;4935387;29;20283;-74
2023/07/06 07:59:23;;;;;;;3.25;2.22;;;26.10;64.50;;;;;;4935236;29;20698;-76
2023/07/06 08:01:51;;;;;;;4.60;2.50;;;26.40;73.60;;;;;;4936863;28;20219;-76
2023/07/06 08:04:21;;;;;;;5.30;2.20;;;26.00;67.00;;;;;;4974151;28;20211;-74
2023/07/06 08:06:49;;;;;;;3.38;2.25;;;26.40;81.00;;;;;;4973959;28;20206;-76
2023/07/06 08:09:18;;;;;;;4.10;2.42;;;26.70;66.90;;;;;;4958011;28;20216;-76
2023/07/06 08:11:47;;;;;;;4.53;2.50;;;26.10;67.30;;;;;;4935166;29;20263;-76
2023/07/06 08:14:34;;;;;;;3.47;2.55;;;27.00;54.10;;;;;;4935597;29;20216;-77
2023/07/06 08:17:04;;;;;;;3.42;2.30;;;27.20;56.10;;;;;;4935118;29;20249;-76
2023/07/06 08:19:33;;;;;;;3.15;2.35;;;26.20;56.00;;;;;;4935581;29;20208;-76
2023/07/06 08:22:22;;;;;;;3.92;2.40;;;27.40;64.10;;;;;;4934932;29;20216;-77
2023/07/06 08:24:52;;;;;;;2.38;2.10;;;28.70;58.20;;;;;;4934834;29;20232;-75
2023/07/06 08:27:22;;;;;;;4.90;2.20;;;29.30;56.20;;;;;;4934554;29;20235;-76
2023/07/06 08:29:51;;;;;;;3.22;2.05;;;29.90;52.70;;;;;;4935313;29;20208;-76
2023/07/06 08:32:21;;;;;;;2.90;2.20;;;29.60;54.90;;;;;;4934797;29;20212;-76
2023/07/06 08:34:50;;;;;;;4.60;2.17;;;30.20;49.10;;;;;;4934438;29;20216;-77
2023/07/06 08:37:18;;;;;;;3.60;2.20;;;29.50;41.10;;;;;;4935101;29;20212;-76
2023/07/06 08:39:48;;;;;;;3.47;2.17;;;30.50;37.80;;;;;;4934920;29;20244;-76
2023/07/06 08:42:18;;;;;;;3.92;2.30;;;30.00;40.50;;;;;;4934476;29;20244;-75
2023/07/06 08:44:53;;;;;;;3.85;2.53;;;29.50;44.80;;;;;;4934647;29;20192;-77
2023/07/06 08:47:25;;;;;;;4.65;2.50;;;29.90;43.10;;;;;;4935223;29;20351;-76
2023/07/06 08:49:56;;;;;;;4.00;2.45;;;30.70;45.80;;;;;;4934846;29;20220;-75
2023/07/06 08:52:25;;;;;;;4.55;2.10;;;30.50;44.90;;;;;;4935016;28;20228;-78
2023/07/06 08:54:54;;;;;;;3.15;2.38;;;30.10;48.00;;;;;;4934397;29;20613;-78
2023/07/06 08:57:25;;;;;;;4.65;2.45;;;30.90;40.00;;;;;;4934737;29;20271;-77
2023/07/06 08:59:55;;;;;;;3.58;2.15;;;30.50;33.90;;;;;;4934509;29;20216;-79
2023/07/06 09:02:26;;;;;;;6.15;2.60;;;30.60;39.30;;;;;;4966962;28;20215;-77
2023/07/06 09:04:56;;;;;;;3.65;2.20;;;30.40;41.30;;;;;;4972789;28;20665;-76
2023/07/06 09:07:34;;;;;;;4.07;2.50;;;30.30;36.50;;;;;;4973528;28;20231;-75
2023/07/06 09:10:11;;;;;;;2.97;2.58;;;30.40;37.70;;;;;;4935770;29;20220;-76
2023/07/06 09:12:53;;;;;;;3.08;2.30;;;30.20;35.90;;;;;;4934410;29;20663;-77
2023/07/06 09:15:28;;;;;;;5.07;2.53;;;30.00;38.00;;;;;;4934718;29;20208;-75
2023/07/06 09:17:59;;;;;;;5.47;2.42;;;29.80;40.00;;;;;;4934478;29;20204;-76
2023/07/06 09:20:28;;;;;;;2.97;2.45;;;30.00;38.70;;;;;;4934756;29;20621;-75
2023/07/06 09:22:56;;;;;;;5.00;2.70;;;29.90;35.80;;;;;;4934295;29;20583;-76
2023/07/06 09:25:29;;;;;;;2.60;2.40;;;30.10;43.40;;;;;;4934239;29;20211;-76
2023/07/06 09:27:59;;;;;;;3.60;2.70;;;29.50;44.50;;;;;;4934676;29;20626;-75
2023/07/06 09:30:32;;;;;;;3.30;2.28;;;29.50;42.40;;;;;;4934406;29;20211;-77
2023/07/06 09:33:06;;;;;;;6.82;2.80;;;29.90;46.20;;;;;;4934146;29;20216;-76
2023/07/06 09:35:37;;;;;;;4.22;2.65;;;31.40;38.10;;;;;;4933921;29;20235;-76
2023/07/06 09:38:06;;;;;;;5.30;2.80;;;30.60;40.70;;;;;;4938149;29;20248;-75
2023/07/06 09:40:35;;;;;;;5.03;2.92;;;31.30;37.10;;;;;;4938087;29;20220;-77
2023/07/06 09:43:03;;;;;;;6.32;2.97;;;31.20;38.30;;;;;;4937599;29;20208;-76
2023/07/06 09:45:34;;;;;;;5.40;2.95;;;30.20;33.90;;;;;;4962322;28;20623;-75
2023/07/06 09:48:07;;;;;;;5.03;2.97;;;30.90;32.20;;;;;;4976676;28;20215;-76
2023/07/06 09:50:39;;;;;;;3.65;2.80;;;30.30;33.70;;;;;;4976692;28;20214;-75
2023/07/06 09:53:14;;;;;;;4.97;2.97;;;31.20;32.80;;;;;;4942277;28;20212;-76
2023/07/06 09:55:42;;;;;;;3.03;2.60;;;31.10;35.20;;;;;;4938114;29;20247;-75
2023/07/06 09:58:15;;;;;;;5.22;3.10;;;31.00;36.10;;;;;;4937759;29;20209;-76
2023/07/06 10:00:50;;;;;;;5.25;3.17;;;31.30;34.30;;;;;;4940964;28;20212;-76
2023/07/06 10:03:31;;;;;;;3.78;2.83;;;30.30;36.10;;;;;;4937360;29;20200;-76
2023/07/06 10:06:07;;;;;;;5.30;3.00;;;31.30;32.10;;;;;;4936891;29;20250;-76
2023/07/06 10:08:44;;;;;;;7.78;3.20;;;31.60;40.40;;;;;;4940983;29;20235;-76
2023/07/06 10:11:20;;;;;;;4.63;3.20;;;31.50;32.50;;;;;;4938035;29;20717;-79
2023/07/06 10:13:57;;;;;;;7.50;3.20;;;31.40;33.00;;;;;;4937508;29;20212;-76
2023/07/06 10:16:42;;;;;;;5.57;2.85;;;30.20;32.00;;;;;;4941919;29;20223;-75
2023/07/06 10:19:20;;;;;;;5.40;3.22;;;30.60;32.70;;;;;;4937185;29;20305;-75
2023/07/06 10:21:59;;;;;;;5.50;2.97;;;31.10;34.20;;;;;;4937376;29;20283;-76
2023/07/06 10:24:36;;;;;;;3.88;2.65;;;29.90;31.30;;;;;;4937643;29;20354;-75
2023/07/06 10:27:07;;;;;;;3.83;3.20;;;30.40;37.70;;;;;;4937306;29;20228;-77
2023/07/06 10:29:41;;;;;;;3.72;3.10;;;30.40;33.50;;;;;;4937339;29;20200;-75
2023/07/06 10:32:15;;;;;;;3.30;3.00;;;30.10;36.00;;;;;;4936840;29;20267;-75
2023/07/06 10:34:48;;;;;;;3.47;3.17;;;29.80;33.50;;;;;;4937246;29;20212;-75
2023/07/06 10:37:18;;;;;;;6.05;3.13;;;30.20;32.40;;;;;;4937639;29;20205;-76
2023/07/06 10:40:00;;;;;;;3.88;3.00;;;29.40;37.00;;;;;;4938460;29;20231;-75
2023/07/06 10:42:31;;;;;;;4.78;3.30;;;30.60;38.00;;;;;;4937772;29;20216;-76
2023/07/06 10:45:03;;;;;;;4.75;3.08;;;31.20;30.50;;;;;;4937514;29;20201;-77
2023/07/06 10:47:40;;;;;;;4.70;3.15;;;31.40;33.40;;;;;;4936775;29;20398;-76
2023/07/06 10:50:27;;;;;;;4.38;3.13;;;31.80;32.90;;;;;;4937250;29;20291;-78
2023/07/06 10:53:00;;;;;;;7.10;3.55;;;29.90;30.20;;;;;;4936836;29;20223;-76
2023/07/06 10:55:34;;;;;;;5.88;3.28;;;28.50;32.40;;;;;;4937242;29;20192;-76
2023/07/06 10:58:24;;;;;;;3.47;3.15;;;27.30;40.00;;;;;;4945400;28;20639;-76
2023/07/06 11:00:54;;;;;;;4.65;3.47;;;26.90;38.00;;;;;;4975588;28;20249;-75
2023/07/06 11:03:28;;;;;;;4.45;3.17;;;26.40;43.90;;;;;;4945953;28;20295;-77
2023/07/06 11:06:05;;;;;;;5.37;3.30;;;25.60;42.70;;;;;;4936902;29;20225;-76
2023/07/06 11:09:12;;;;;;;4.90;3.27;;;25.30;44.00;;;;;;4937097;29;20236;-75
2023/07/06 11:11:42;;;;;;;6.37;3.37;;;25.20;46.90;;;;;;4936926;29;20204;-79
2023/07/06 11:14:20;;;;;;;4.00;3.07;;;25.40;44.70;;;;;;4936767;29;20215;-77
2023/07/06 11:16:56;;;;;;;4.83;3.40;;;25.10;45.70;;;;;;4937201;29;20196;-75
2023/07/06 11:19:31;;;;;;;5.30;3.00;;;24.90;44.50;;;;;;4937168;29;20280;-76
2023/07/06 11:22:05;;;;;;;4.33;3.20;;;24.70;43.80;;;;;;4936566;29;20259;-79
2023/07/06 11:24:39;;;;;;;5.07;3.00;;;24.60;45.20;;;;;;4937181;29;20215;-75
2023/07/06 11:27:24;;;;;;;6.33;3.20;;;24.90;48.70;;;;;;4937100;29;20226;-74
2023/07/06 11:30:01;;;;;;;4.17;3.10;;;25.10;47.50;;;;;;4936348;29;20373;-78
2023/07/06 11:32:39;;;;;;;4.67;3.30;;;25.70;48.40;;;;;;4936286;29;20263;-75
2023/07/06 11:35:32;;;;;;;4.13;3.30;;;26.00;42.90;;;;;;4936490;29;20614;-75
2023/07/06 11:38:24;;;;;;;5.93;3.17;;;26.20;43.80;;;;;;4936078;29;20192;-75
2023/07/06 11:41:20;;;;;;;6.60;3.50;;;26.30;45.10;;;;;;4936511;29;20273;-79
2023/07/06 11:44:06;;;;;;;4.87;3.17;;;26.40;43.30;;;;;;4935117;29;20216;-74
2023/07/06 11:46:48;;;;;;;5.80;3.30;;;26.60;42.20;;;;;;4935656;29;20271;-75
2023/07/06 11:49:32;;;;;;;5.40;3.20;;;26.90;44.10;;;;;;4935974;29;20258;-74
2023/07/06 11:52:05;;;;;;;4.30;3.10;;;27.20;42.70;;;;;;4935719;29;20263;-77
2023/07/06 11:54:51;;;;;;;4.67;3.33;;;27.60;44.40;;;;;;4935819;29;20292;-74
2023/07/06 11:57:26;;;;;;;4.13;3.27;;;27.40;43.90;;;;;;4955344;28;20294;-74
2023/07/06 12:00:18;;;;;;;3.50;3.00;;;27.90;47.60;;;;;;4973958;28;20214;-75
2023/07/06 12:02:49;;;;;;;4.73;3.60;;;28.20;45.50;;;;;;4974295;28;20199;-76
2023/07/06 12:05:27;;;;;;;4.67;3.20;;;27.80;37.40;;;;;;4974228;28;20214;-75
2023/07/06 12:08:02;;;;;;;4.93;3.40;;;27.60;42.00;;;;;;4974532;28;20218;-76
2023/07/06 12:10:33;;;;;;;5.67;3.50;;;27.60;41.80;;;;;;4958856;28;20212;-74
2023/07/06 12:13:04;;;;;;;4.13;3.00;;;27.30;41.80;;;;;;4935676;29;20248;-78
2023/07/06 12:15:33;;;;;;;4.00;3.40;;;27.10;42.50;;;;;;4935890;29;20212;-76
2023/07/06 12:18:01;;;;;;;4.77;3.40;;;26.40;40.30;;;;;;4935573;29;20204;-79
2023/07/06 12:20:32;;;;;;;6.47;3.60;;;26.60;43.70;;;;;;4935603;29;20267;-75
2023/07/06 12:23:01;;;;;;;5.23;3.40;;;26.10;41.70;;;;;;4950805;29;20211;-77
2023/07/06 12:25:29;;;;;;;9.17;3.40;;;25.90;42.90;;;;;;4954210;28;20215;-79
2023/07/06 12:28:00;;;;;;;5.07;3.27;;;25.20;43.00;;;;;;4935625;29;20302;-75
2023/07/06 12:30:33;;;;;;;6.57;3.27;;;24.90;43.50;;;;;;4935484;29;20235;-76
2023/07/06 12:33:05;;;;;;;4.70;3.20;;;24.80;45.20;;;;;;4935229;29;20211;-76
2023/07/06 12:35:34;;;;;;;4.67;3.47;;;24.40;45.20;;;;;;4934908;29;20792;-74
2023/07/06 12:38:09;;;;;;;5.27;3.40;;;24.60;47.50;;;;;;4935738;29;20216;-75
2023/07/06 12:40:38;;;;;;;4.37;3.20;;;24.80;48.80;;;;;;4935787;28;20196;-74
2023/07/06 12:43:06;;;;;;;7.83;3.30;;;24.90;49.40;;;;;;4935618;29;20271;-74
2023/07/06 12:45:34;;;;;;;5.07;3.37;;;25.40;52.70;;;;;;4935311;29;20216;-75
2023/07/06 12:48:05;;;;;;;5.23;3.10;;;25.50;44.60;;;;;;4935135;29;20218;-74
2023/07/06 12:50:37;;;;;;;6.53;3.10;;;25.90;48.00;;;;;;4935090;29;20232;-75
2023/07/06 12:53:13;;;;;;;5.33;3.40;;;26.00;44.30;;;;;;4934866;29;20585;-75
2023/07/06 12:55:44;;;;;;;4.80;3.40;;;26.10;42.50;;;;;;4950066;28;20202;-75
2023/07/06 12:58:17;;;;;;;4.83;3.60;;;26.20;40.70;;;;;;4973650;28;20206;-74
2023/07/06 13:00:49;;;;;;;7.00;3.50;;;26.20;41.50;;;;;;4973332;28;20215;-77
2023/07/06 13:03:18;;;;;;;6.27;3.47;;;26.20;44.80;;;;;;4973421;28;20210;-74
2023/07/06 13:05:54;;;;;;;5.60;3.57;;;26.00;40.40;;;;;;4973533;28;20229;-75